createdAt,value
2023-12-29T00:00:00.736Z,9.8
2023-12-29T00:01:00.787Z,9.8
2023-12-29T00:02:00.697Z,9.8
2023-12-29T00:03:00.682Z,9.8
2023-12-29T00:04:00.915Z,9.8
2023-12-29T00:05:00.834Z,9.8
2023-12-29T00:06:02.821Z,9.1
2023-12-29T00:07:03.532Z,9.1
2023-12-29T00:08:00.959Z,9.1
2023-12-29T00:09:00.656Z,9.1
2023-12-29T00:10:00.740Z,9.1
2023-12-29T00:11:00.699Z,9.2
2023-12-29T00:12:00.707Z,9.2
2023-12-29T00:13:00.695Z,9.2
2023-12-29T00:14:01.294Z,9.2
2023-12-29T00:15:00.698Z,9.2
2023-12-29T00:16:00.693Z,9.4
2023-12-29T00:17:00.672Z,9.4
2023-12-29T00:18:01.347Z,9.4
2023-12-29T00:19:00.768Z,9.4
2023-12-29T00:20:00.725Z,9.4
2023-12-29T00:21:06.629Z,8.8
2023-12-29T00:22:00.792Z,8.8
2023-12-29T00:23:00.673Z,8.8
2023-12-29T00:24:00.685Z,8.8
2023-12-29T00:25:00.789Z,8.8
2023-12-29T00:26:00.670Z,9.6
2023-12-29T00:27:00.704Z,9.6
2023-12-29T00:28:00.989Z,9.6
2023-12-29T00:29:00.668Z,9.6
2023-12-29T00:30:00.714Z,9.6
2023-12-29T00:31:02.881Z,9.4
2023-12-29T00:32:00.815Z,9.4
2023-12-29T00:33:00.848Z,9.4
2023-12-29T00:34:00.804Z,9.4
2023-12-29T00:35:00.845Z,9.4
2023-12-29T00:36:00.693Z,9.1
2023-12-29T00:37:00.717Z,9.1
2023-12-29T00:38:01.081Z,9.1
2023-12-29T00:39:00.674Z,9.1
2023-12-29T00:40:00.790Z,9.1
2023-12-29T00:41:00.699Z,9.6
2023-12-29T00:42:00.665Z,9.6
2023-12-29T00:43:01.491Z,9.6
2023-12-29T00:44:00.727Z,9.6
2023-12-29T00:45:00.705Z,9.6
2023-12-29T00:46:04.514Z,9.2
2023-12-29T00:47:00.824Z,9.2
2023-12-29T00:48:01.321Z,9.2
2023-12-29T00:49:00.985Z,9.2
2023-12-29T00:50:01.263Z,9.2
2023-12-29T00:51:01.647Z,9.5
2023-12-29T00:52:00.733Z,9.5
2023-12-29T00:53:00.691Z,9.5
2023-12-29T00:54:00.715Z,9.5
2023-12-29T00:55:00.958Z,9.5
2023-12-29T00:56:00.879Z,9.1
2023-12-29T00:57:00.735Z,9.1
2023-12-29T00:58:01.394Z,9.1
2023-12-29T00:59:00.666Z,9.1
2023-12-29T01:00:00.964Z,9.1
2023-12-29T01:01:00.708Z,9.4
2023-12-29T01:02:00.724Z,9.4
2023-12-29T01:03:00.825Z,9.4
2023-12-29T01:04:01.615Z,9.4
2023-12-29T01:05:00.799Z,9.4
2023-12-29T01:06:00.754Z,9.6
2023-12-29T01:07:00.685Z,9.6
2023-12-29T01:08:01.050Z,9.6
2023-12-29T01:09:00.708Z,9.6
2023-12-29T01:10:00.700Z,9.6
2023-12-29T01:11:00.706Z,9.4
2023-12-29T01:12:00.660Z,9.4
2023-12-29T01:13:00.713Z,9.4
2023-12-29T01:14:00.658Z,9.4
2023-12-29T01:15:00.856Z,9.4
2023-12-29T01:16:00.654Z,9.4
2023-12-29T01:17:00.816Z,9.4
2023-12-29T01:18:01.093Z,9.4
2023-12-29T01:19:00.826Z,9.4
2023-12-29T01:20:00.869Z,9.4
2023-12-29T01:21:00.690Z,9.6
2023-12-29T01:22:00.679Z,9.6
2023-12-29T01:23:00.641Z,9.6
2023-12-29T01:24:00.668Z,9.6
2023-12-29T01:25:00.842Z,9.6
2023-12-29T01:26:00.671Z,9.1
2023-12-29T01:27:00.742Z,9.1
2023-12-29T01:28:00.711Z,9.1
2023-12-29T01:29:00.675Z,9.1
2023-12-29T01:30:00.669Z,9.1
2023-12-29T01:31:00.796Z,9.6
2023-12-29T01:32:00.668Z,9.6
2023-12-29T01:33:00.736Z,9.6
2023-12-29T01:34:00.775Z,9.6
2023-12-29T01:35:00.906Z,9.6
2023-12-29T01:36:07.776Z,9.0
2023-12-29T01:37:02.953Z,9.0
2023-12-29T01:38:03.292Z,9.0
2023-12-29T01:39:00.741Z,9.0
2023-12-29T01:40:00.794Z,9.0
2023-12-29T01:41:00.692Z,9.0
2023-12-29T01:42:00.726Z,9.0
2023-12-29T01:43:00.733Z,9.0
2023-12-29T01:44:19.024Z,9.0
2023-12-29T01:45:00.683Z,9.0
2023-12-29T01:46:00.886Z,8.3
2023-12-29T01:47:01.324Z,8.3
2023-12-29T01:48:01.085Z,8.3
2023-12-29T01:49:01.342Z,8.3
2023-12-29T01:50:00.990Z,8.3
2023-12-29T01:51:00.875Z,8.5
2023-12-29T01:52:01.467Z,8.5
2023-12-29T01:53:02.608Z,8.5
2023-12-29T01:54:01.065Z,8.5
2023-12-29T01:55:00.782Z,8.5
2023-12-29T01:56:02.308Z,8.1
2023-12-29T01:57:02.449Z,8.1
2023-12-29T01:58:01.187Z,8.1
2023-12-29T01:59:07.763Z,8.1
2023-12-29T02:00:01.684Z,8.1
2023-12-29T02:01:02.305Z,7.5
2023-12-29T02:02:01.794Z,7.5
2023-12-29T02:03:00.788Z,7.5
2023-12-29T02:04:00.856Z,7.5
2023-12-29T02:05:00.947Z,7.5
2023-12-29T02:06:01.565Z,7.6
2023-12-29T02:07:01.301Z,7.6
2023-12-29T02:08:03.213Z,7.6
2023-12-29T02:09:02.352Z,7.6
2023-12-29T02:10:01.067Z,7.6
2023-12-29T02:11:00.794Z,7.4
2023-12-29T02:12:00.828Z,7.4
2023-12-29T02:13:00.782Z,7.4
2023-12-29T02:14:01.472Z,7.4
2023-12-29T02:15:01.164Z,7.4
2023-12-29T02:16:07.294Z,7.3
2023-12-29T02:17:12.968Z,7.3
2023-12-29T02:18:06.609Z,7.3
2023-12-29T02:19:08.822Z,7.3
2023-12-29T02:20:00.913Z,7.3
2023-12-29T02:21:00.676Z,7.0
2023-12-29T02:22:00.702Z,7.0
2023-12-29T02:23:00.844Z,7.0
2023-12-29T02:24:00.703Z,7.0
2023-12-29T02:25:00.856Z,7.0
2023-12-29T02:26:07.403Z,7.0
2023-12-29T02:27:09.366Z,7.0
2023-12-29T02:28:01.921Z,7.0
2023-12-29T02:29:04.204Z,7.0
2023-12-29T02:30:31.119Z,7.6
2023-12-29T02:31:07.721Z,7.6
2023-12-29T02:32:05.417Z,7.6
2023-12-29T02:33:05.750Z,7.6
2023-12-29T02:34:03.227Z,7.6
2023-12-29T02:35:02.304Z,7.6
2023-12-29T02:36:02.625Z,7.4
2023-12-29T02:37:02.339Z,7.4
2023-12-29T02:38:01.236Z,7.4
2023-12-29T02:39:00.780Z,7.4
2023-12-29T02:40:01.670Z,7.4
2023-12-29T02:41:00.848Z,7.2
2023-12-29T02:42:00.826Z,7.2
2023-12-29T02:43:00.776Z,7.2
2023-12-29T02:44:00.698Z,7.2
2023-12-29T02:45:00.826Z,7.2
2023-12-29T02:46:00.762Z,6.7
2023-12-29T02:47:00.742Z,6.7
2023-12-29T02:48:01.009Z,6.7
2023-12-29T02:49:00.813Z,6.7
2023-12-29T02:50:00.775Z,6.7
2023-12-29T02:51:00.676Z,7.2
2023-12-29T02:52:00.814Z,7.2
2023-12-29T02:53:00.700Z,7.2
2023-12-29T02:54:00.664Z,7.2
2023-12-29T02:55:00.790Z,7.2
2023-12-29T02:56:00.691Z,6.9
2023-12-29T02:57:00.657Z,6.9
2023-12-29T02:58:01.101Z,6.9
2023-12-29T02:59:00.664Z,6.9
2023-12-29T03:00:00.953Z,6.9
2023-12-29T03:01:00.751Z,7.1
2023-12-29T03:02:00.872Z,7.1
2023-12-29T03:03:00.689Z,7.1
2023-12-29T03:04:01.107Z,7.1
2023-12-29T03:05:00.980Z,7.1
2023-12-29T03:06:00.695Z,6.9
2023-12-29T03:07:00.747Z,6.9
2023-12-29T03:08:00.947Z,6.9
2023-12-29T03:09:00.674Z,6.9
2023-12-29T03:10:00.773Z,6.9
2023-12-29T03:11:00.666Z,7.4
2023-12-29T03:12:00.695Z,7.4
2023-12-29T03:13:00.723Z,7.4
2023-12-29T03:14:00.663Z,7.4
2023-12-29T03:15:00.724Z,7.4
2023-12-29T03:16:00.740Z,7.4
2023-12-29T03:17:00.667Z,7.4
2023-12-29T03:18:01.239Z,7.4
2023-12-29T03:19:00.711Z,7.4
2023-12-29T03:20:02.826Z,7.4
2023-12-29T03:21:00.764Z,7.2
2023-12-29T03:22:00.754Z,7.2
2023-12-29T03:23:00.670Z,7.2
2023-12-29T03:24:00.660Z,7.2
2023-12-29T03:25:00.737Z,7.2
2023-12-29T03:26:00.759Z,7.0
2023-12-29T03:27:00.649Z,7.0
2023-12-29T03:28:01.047Z,7.0
2023-12-29T03:29:00.801Z,7.0
2023-12-29T03:30:00.777Z,7.0
2023-12-29T03:31:00.716Z,7.1
2023-12-29T03:32:00.722Z,7.1
2023-12-29T03:33:03.255Z,7.1
2023-12-29T03:34:00.769Z,7.1
2023-12-29T03:35:00.981Z,7.1
2023-12-29T03:36:00.652Z,6.6
2023-12-29T03:37:00.742Z,6.6
2023-12-29T03:38:00.964Z,6.6
2023-12-29T03:39:00.704Z,6.6
2023-12-29T03:40:00.763Z,6.6
2023-12-29T03:41:00.650Z,7.5
2023-12-29T03:42:01.581Z,7.5
2023-12-29T03:43:00.695Z,7.5
2023-12-29T03:44:00.714Z,7.5
2023-12-29T03:45:00.725Z,7.5
2023-12-29T03:46:00.692Z,6.8
2023-12-29T03:47:00.670Z,6.8
2023-12-29T03:48:01.161Z,6.8
2023-12-29T03:49:00.802Z,6.8
2023-12-29T03:50:00.821Z,6.8
2023-12-29T03:51:00.707Z,6.5
2023-12-29T03:52:00.744Z,6.5
2023-12-29T03:53:00.677Z,6.5
2023-12-29T03:54:00.762Z,6.5
2023-12-29T03:55:00.756Z,6.5
2023-12-29T03:56:05.109Z,6.8
2023-12-29T03:57:00.658Z,6.8
2023-12-29T03:58:02.391Z,6.8
2023-12-29T03:59:00.684Z,6.8
2023-12-29T04:00:00.735Z,6.8
2023-12-29T04:01:01.202Z,6.4
2023-12-29T04:02:00.732Z,6.4
2023-12-29T04:03:00.680Z,6.4
2023-12-29T04:04:00.871Z,6.4
2023-12-29T04:05:00.790Z,6.4
2023-12-29T04:06:00.659Z,6.3
2023-12-29T04:07:00.709Z,6.3
2023-12-29T04:08:00.926Z,6.3
2023-12-29T04:09:00.688Z,6.3
2023-12-29T04:10:00.664Z,6.3
2023-12-29T04:11:01.304Z,6.8
2023-12-29T04:12:00.663Z,6.8
2023-12-29T04:13:00.770Z,6.8
2023-12-29T04:14:00.799Z,6.8
2023-12-29T04:15:00.733Z,6.8
2023-12-29T04:16:00.800Z,6.5
2023-12-29T04:17:00.723Z,6.5
2023-12-29T04:18:01.120Z,6.5
2023-12-29T04:19:00.804Z,6.5
2023-12-29T04:20:00.669Z,6.5
2023-12-29T04:21:00.680Z,6.8
2023-12-29T04:22:00.712Z,6.8
2023-12-29T04:23:00.665Z,6.8
2023-12-29T04:24:00.761Z,6.8
2023-12-29T04:25:00.905Z,6.8
2023-12-29T04:26:00.663Z,6.6
2023-12-29T04:27:00.693Z,6.6
2023-12-29T04:28:00.980Z,6.6
2023-12-29T04:29:00.667Z,6.6
2023-12-29T04:30:00.708Z,6.6
2023-12-29T04:31:00.710Z,6.2
2023-12-29T04:32:00.665Z,6.2
2023-12-29T04:33:01.082Z,6.2
2023-12-29T04:34:00.720Z,6.2
2023-12-29T04:35:01.016Z,6.2
2023-12-29T04:36:00.659Z,6.1
2023-12-29T04:37:00.745Z,6.1
2023-12-29T04:38:01.218Z,6.1
2023-12-29T04:39:00.661Z,6.1
2023-12-29T04:40:00.759Z,6.1
2023-12-29T04:41:00.708Z,6.4
2023-12-29T04:42:00.683Z,6.4
2023-12-29T04:43:00.670Z,6.4
2023-12-29T04:44:00.774Z,6.4
2023-12-29T04:45:00.693Z,6.4
2023-12-29T04:46:00.786Z,5.9
2023-12-29T04:47:00.652Z,5.9
2023-12-29T04:48:01.009Z,5.9
2023-12-29T04:49:01.451Z,5.9
2023-12-29T04:50:00.870Z,5.9
2023-12-29T04:51:00.653Z,6.1
2023-12-29T04:52:00.758Z,6.1
2023-12-29T04:53:00.661Z,6.1
2023-12-29T04:54:00.671Z,6.1
2023-12-29T04:55:00.859Z,6.1
2023-12-29T04:56:00.669Z,6.2
2023-12-29T04:57:00.833Z,6.2
2023-12-29T04:58:00.907Z,6.2
2023-12-29T04:59:00.661Z,6.2
2023-12-29T05:00:00.703Z,6.2
2023-12-29T05:01:00.732Z,5.7
2023-12-29T05:02:00.855Z,5.7
2023-12-29T05:03:00.697Z,5.7
2023-12-29T05:04:00.781Z,5.7
2023-12-29T05:05:00.824Z,5.7
2023-12-29T05:06:00.705Z,5.9
2023-12-29T05:07:00.717Z,5.9
2023-12-29T05:08:01.194Z,5.9
2023-12-29T05:09:00.673Z,5.9
2023-12-29T05:10:00.802Z,6.1
2023-12-29T05:11:00.866Z,6.1
2023-12-29T05:12:00.911Z,6.1
2023-12-29T05:13:00.725Z,6.1
2023-12-29T05:14:00.695Z,6.1
2023-12-29T05:15:00.689Z,5.9
2023-12-29T05:16:00.714Z,5.9
2023-12-29T05:17:00.654Z,5.9
2023-12-29T05:18:01.132Z,5.9
2023-12-29T05:19:00.960Z,5.9
2023-12-29T05:20:00.808Z,6.4
2023-12-29T05:21:00.730Z,6.4
2023-12-29T05:22:00.765Z,6.4
2023-12-29T05:23:00.669Z,6.4
2023-12-29T05:24:00.681Z,6.4
2023-12-29T05:25:02.221Z,6.2
2023-12-29T05:26:00.662Z,6.2
2023-12-29T05:27:00.692Z,6.2
2023-12-29T05:28:01.014Z,6.2
2023-12-29T05:29:00.671Z,6.2
2023-12-29T05:30:01.343Z,6.0
2023-12-29T05:31:00.796Z,6.0
2023-12-29T05:32:00.673Z,6.0
2023-12-29T05:33:00.752Z,6.0
2023-12-29T05:34:00.829Z,6.0
2023-12-29T05:35:00.812Z,5.9
2023-12-29T05:36:06.625Z,5.9
2023-12-29T05:37:00.829Z,5.9
2023-12-29T05:38:00.952Z,5.9
2023-12-29T05:39:00.658Z,5.9
2023-12-29T05:40:00.752Z,6.1
2023-12-29T05:41:01.104Z,6.1
2023-12-29T05:42:00.738Z,6.1
2023-12-29T05:43:00.706Z,6.1
2023-12-29T05:44:00.661Z,6.1
2023-12-29T05:45:00.723Z,6.1
2023-12-29T05:46:01.546Z,6.1
2023-12-29T05:47:00.702Z,6.1
2023-12-29T05:48:00.952Z,6.1
2023-12-29T05:49:00.773Z,6.1
2023-12-29T05:50:00.811Z,6.1
2023-12-29T05:51:07.163Z,6.1
2023-12-29T05:52:00.712Z,6.1
2023-12-29T05:53:00.657Z,6.1
2023-12-29T05:54:00.696Z,6.1
2023-12-29T05:55:00.881Z,6.2
2023-12-29T05:56:00.709Z,6.2
2023-12-29T05:57:00.826Z,6.2
2023-12-29T05:58:01.038Z,6.2
2023-12-29T05:59:00.748Z,6.2
2023-12-29T06:00:00.656Z,6.1
2023-12-29T06:01:00.719Z,6.1
2023-12-29T06:02:00.719Z,6.1
2023-12-29T06:03:00.790Z,6.1
2023-12-29T06:04:00.748Z,6.1
2023-12-29T06:05:00.791Z,6.5
2023-12-29T06:06:00.854Z,6.5
2023-12-29T06:07:00.666Z,6.5
2023-12-29T06:08:00.918Z,6.5
2023-12-29T06:09:00.671Z,6.5
2023-12-29T06:10:00.715Z,6.7
2023-12-29T06:11:00.688Z,6.7
2023-12-29T06:12:00.669Z,6.7
2023-12-29T06:13:01.795Z,6.7
2023-12-29T06:14:00.734Z,6.7
2023-12-29T06:15:00.853Z,6.7
2023-12-29T06:16:00.750Z,6.7
2023-12-29T06:17:00.694Z,6.7
2023-12-29T06:18:01.037Z,6.7
2023-12-29T06:19:00.726Z,6.7
2023-12-29T06:20:01.582Z,6.6
2023-12-29T06:21:01.877Z,6.6
2023-12-29T06:22:00.691Z,6.6
2023-12-29T06:23:01.125Z,6.6
2023-12-29T06:24:00.692Z,6.6
2023-12-29T06:25:00.825Z,6.8
2023-12-29T06:26:00.683Z,6.8
2023-12-29T06:27:00.661Z,6.8
2023-12-29T06:28:01.012Z,6.8
2023-12-29T06:29:00.695Z,6.8
2023-12-29T06:30:00.741Z,6.9
2023-12-29T06:31:00.765Z,6.9
2023-12-29T06:32:00.711Z,6.9
2023-12-29T06:33:00.910Z,6.9
2023-12-29T06:34:00.762Z,6.9
2023-12-29T06:35:00.724Z,6.6
2023-12-29T06:36:00.757Z,6.6
2023-12-29T06:37:00.736Z,6.6
2023-12-29T06:38:00.879Z,6.6
2023-12-29T06:39:00.664Z,6.6
2023-12-29T06:40:00.703Z,5.8
2023-12-29T06:41:03.037Z,5.8
2023-12-29T06:42:00.662Z,5.8
2023-12-29T06:43:00.788Z,5.8
2023-12-29T06:44:00.693Z,5.8
2023-12-29T06:45:00.775Z,6.2
2023-12-29T06:46:00.723Z,6.2
2023-12-29T06:47:00.735Z,6.2
2023-12-29T06:48:01.193Z,6.2
2023-12-29T06:49:00.886Z,6.2
2023-12-29T06:50:00.797Z,5.9
2023-12-29T06:51:00.692Z,5.9
2023-12-29T06:52:01.143Z,5.9
2023-12-29T06:53:02.356Z,5.9
2023-12-29T06:54:00.690Z,5.9
2023-12-29T06:55:01.290Z,5.5
2023-12-29T06:56:00.732Z,5.5
2023-12-29T06:57:00.896Z,5.5
2023-12-29T06:58:01.020Z,5.5
2023-12-29T06:59:00.660Z,5.5
2023-12-29T07:00:00.677Z,6.0
2023-12-29T07:01:00.763Z,6.0
2023-12-29T07:02:00.746Z,6.0
2023-12-29T07:03:01.040Z,6.0
2023-12-29T07:04:00.702Z,6.0
2023-12-29T07:05:00.858Z,6.2
2023-12-29T07:06:01.121Z,6.2
2023-12-29T07:07:01.160Z,6.2
2023-12-29T07:08:00.900Z,6.2
2023-12-29T07:09:00.805Z,6.2
2023-12-29T07:10:00.697Z,6.0
2023-12-29T07:11:00.731Z,6.0
2023-12-29T07:12:00.683Z,6.0
2023-12-29T07:13:00.795Z,6.0
2023-12-29T07:14:00.723Z,6.0
2023-12-29T07:15:00.697Z,6.0
2023-12-29T07:16:00.689Z,6.0
2023-12-29T07:17:00.720Z,6.0
2023-12-29T07:18:01.126Z,6.0
2023-12-29T07:19:00.784Z,6.0
2023-12-29T07:20:01.184Z,5.8
2023-12-29T07:21:00.725Z,5.8
2023-12-29T07:22:00.718Z,5.8
2023-12-29T07:23:00.737Z,5.8
2023-12-29T07:24:00.667Z,5.8
2023-12-29T07:25:00.784Z,5.8
2023-12-29T07:26:00.702Z,5.8
2023-12-29T07:27:01.268Z,5.8
2023-12-29T07:28:01.134Z,5.8
2023-12-29T07:29:00.693Z,5.8
2023-12-29T07:30:00.670Z,5.6
2023-12-29T07:31:01.703Z,5.6
2023-12-29T07:32:00.741Z,5.6
2023-12-29T07:33:00.709Z,5.6
2023-12-29T07:34:00.962Z,5.6
2023-12-29T07:35:00.938Z,5.6
2023-12-29T07:36:00.682Z,5.6
2023-12-29T07:37:00.728Z,5.6
2023-12-29T07:38:00.902Z,5.6
2023-12-29T07:39:00.689Z,5.6
2023-12-29T07:40:00.760Z,5.5
2023-12-29T07:41:01.011Z,5.5
2023-12-29T07:42:02.149Z,5.5
2023-12-29T07:43:00.778Z,5.5
2023-12-29T07:44:00.674Z,5.5
2023-12-29T07:45:00.676Z,5.9
2023-12-29T07:46:00.746Z,5.9
2023-12-29T07:47:00.667Z,5.9
2023-12-29T07:48:05.846Z,5.9
2023-12-29T07:49:00.768Z,5.9
2023-12-29T07:50:01.073Z,5.6
2023-12-29T07:51:05.449Z,5.6
2023-12-29T07:52:00.832Z,5.6
2023-12-29T07:53:00.764Z,5.6
2023-12-29T07:54:00.680Z,5.6
2023-12-29T07:55:00.858Z,5.8
2023-12-29T07:56:00.696Z,5.8
2023-12-29T07:57:00.676Z,5.8
2023-12-29T07:58:00.868Z,5.8
2023-12-29T07:59:00.658Z,5.8
2023-12-29T08:00:01.624Z,5.7
2023-12-29T08:01:00.736Z,5.7
2023-12-29T08:02:00.827Z,5.7
2023-12-29T08:03:00.651Z,5.7
2023-12-29T08:04:00.989Z,5.7
2023-12-29T08:05:00.983Z,6.1
2023-12-29T08:06:00.734Z,6.1
2023-12-29T08:07:00.714Z,6.1
2023-12-29T08:08:01.144Z,6.1
2023-12-29T08:09:00.655Z,6.1
2023-12-29T08:10:00.895Z,5.8
2023-12-29T08:11:00.713Z,5.8
2023-12-29T08:12:00.676Z,5.8
2023-12-29T08:13:00.687Z,5.8
2023-12-29T08:14:01.373Z,5.8
2023-12-29T08:15:00.708Z,6.0
2023-12-29T08:16:00.729Z,6.0
2023-12-29T08:17:00.646Z,6.0
2023-12-29T08:18:01.500Z,6.0
2023-12-29T08:19:00.732Z,6.0
2023-12-29T08:20:00.737Z,5.4
2023-12-29T08:21:00.792Z,5.4
2023-12-29T08:22:00.759Z,5.4
2023-12-29T08:23:02.569Z,5.4
2023-12-29T08:24:00.708Z,5.4
2023-12-29T08:25:00.766Z,5.5
2023-12-29T08:26:03.186Z,5.5
2023-12-29T08:27:00.701Z,5.5
2023-12-29T08:28:00.989Z,5.5
2023-12-29T08:29:00.686Z,5.5
2023-12-29T08:30:00.662Z,5.8
2023-12-29T08:31:00.723Z,5.8
2023-12-29T08:32:00.662Z,5.8
2023-12-29T08:33:00.718Z,5.8
2023-12-29T08:34:00.740Z,5.8
2023-12-29T08:35:00.892Z,6.7
2023-12-29T08:36:02.668Z,6.7
2023-12-29T08:37:00.756Z,6.7
2023-12-29T08:38:00.952Z,6.7
2023-12-29T08:39:00.662Z,6.7
2023-12-29T08:40:02.571Z,5.5
2023-12-29T08:41:00.684Z,5.5
2023-12-29T08:42:00.712Z,5.5
2023-12-29T08:43:00.691Z,5.5
2023-12-29T08:44:00.776Z,5.5
2023-12-29T08:45:00.734Z,5.3
2023-12-29T08:46:00.725Z,5.3
2023-12-29T08:47:00.673Z,5.3
2023-12-29T08:48:01.154Z,5.3
2023-12-29T08:49:00.826Z,5.3
2023-12-29T08:50:00.688Z,4.9
2023-12-29T08:51:00.713Z,4.9
2023-12-29T08:52:00.731Z,4.9
2023-12-29T08:53:00.713Z,4.9
2023-12-29T08:54:00.805Z,4.9
2023-12-29T08:55:00.685Z,4.9
2023-12-29T08:56:01.498Z,4.9
2023-12-29T08:57:00.682Z,4.9
2023-12-29T08:58:01.441Z,4.9
2023-12-29T08:59:00.726Z,4.9
2023-12-29T09:00:00.662Z,4.9
2023-12-29T09:01:00.782Z,4.9
2023-12-29T09:02:00.770Z,4.9
2023-12-29T09:03:00.732Z,4.9
2023-12-29T09:04:00.742Z,4.9
2023-12-29T09:05:00.701Z,4.7
2023-12-29T09:06:00.719Z,4.7
2023-12-29T09:07:00.741Z,4.7
2023-12-29T09:08:01.184Z,4.7
2023-12-29T09:09:00.844Z,4.7
2023-12-29T09:10:00.865Z,4.3
2023-12-29T09:11:00.878Z,4.3
2023-12-29T09:12:00.684Z,4.3
2023-12-29T09:13:00.699Z,4.3
2023-12-29T09:14:00.687Z,4.3
2023-12-29T09:15:00.698Z,4.4
2023-12-29T09:16:00.869Z,4.4
2023-12-29T09:17:01.179Z,4.4
2023-12-29T09:18:01.115Z,4.4
2023-12-29T09:19:00.740Z,4.4
2023-12-29T09:20:07.103Z,4.5
2023-12-29T09:21:00.850Z,4.5
2023-12-29T09:22:00.827Z,4.5
2023-12-29T09:23:00.644Z,4.5
2023-12-29T09:24:00.662Z,4.5
2023-12-29T09:25:00.824Z,4.3
2023-12-29T09:26:00.718Z,4.3
2023-12-29T09:27:00.667Z,4.3
2023-12-29T09:28:00.940Z,4.3
2023-12-29T09:29:01.019Z,4.3
2023-12-29T09:30:00.716Z,4.6
2023-12-29T09:31:00.805Z,4.6
2023-12-29T09:32:00.834Z,4.6
2023-12-29T09:33:00.766Z,4.6
2023-12-29T09:34:00.736Z,4.6
2023-12-29T09:35:00.674Z,4.2
2023-12-29T09:36:00.734Z,4.2
2023-12-29T09:37:00.751Z,4.2
2023-12-29T09:38:00.909Z,4.2
2023-12-29T09:39:00.646Z,4.2
2023-12-29T09:40:00.708Z,4.3
2023-12-29T09:41:05.184Z,4.3
2023-12-29T09:42:03.416Z,4.3
2023-12-29T09:43:03.291Z,4.3
2023-12-29T09:44:03.824Z,4.3
2023-12-29T09:45:02.540Z,4.3
2023-12-29T09:46:03.335Z,4.3
2023-12-29T09:47:02.015Z,4.3
2023-12-29T09:48:01.957Z,4.3
2023-12-29T09:49:03.221Z,4.3
2023-12-29T09:50:02.177Z,4.2
2023-12-29T09:51:00.685Z,4.2
2023-12-29T09:52:02.359Z,4.2
2023-12-29T09:53:02.357Z,4.2
2023-12-29T09:54:01.031Z,4.2
2023-12-29T09:55:01.352Z,4.2
2023-12-29T09:56:03.278Z,4.2
2023-12-29T09:57:01.938Z,4.2
2023-12-29T09:58:02.271Z,4.2
2023-12-29T09:59:03.183Z,4.2
2023-12-29T10:00:02.681Z,4.1
2023-12-29T10:01:03.210Z,4.1
2023-12-29T10:02:02.161Z,4.1
2023-12-29T10:03:00.899Z,4.1
2023-12-29T10:04:01.448Z,4.1
2023-12-29T10:05:03.247Z,3.8
2023-12-29T10:06:06.186Z,3.8
2023-12-29T10:07:02.517Z,3.8
2023-12-29T10:08:02.890Z,3.8
2023-12-29T10:09:03.177Z,3.8
2023-12-29T10:10:01.466Z,4.4
2023-12-29T10:11:01.985Z,4.4
2023-12-29T10:12:02.702Z,4.4
2023-12-29T10:13:02.122Z,4.4
2023-12-29T10:14:07.633Z,4.4
2023-12-29T10:15:21.367Z,4.2
2023-12-29T10:16:18.616Z,4.2
2023-12-29T10:17:06.465Z,4.2
2023-12-29T10:18:39.082Z,4.2
2023-12-29T10:19:04.031Z,4.2
2023-12-29T10:20:30.194Z,4.1
2023-12-29T10:21:09.021Z,4.1
2023-12-29T10:22:10.114Z,4.1
2023-12-29T10:23:08.301Z,4.1
2023-12-29T10:24:10.487Z,4.1
2023-12-29T10:25:01.264Z,4.1
2023-12-29T10:26:01.072Z,4.1
2023-12-29T10:27:00.886Z,4.1
2023-12-29T10:28:00.862Z,4.1
2023-12-29T10:29:00.964Z,4.1
2023-12-29T10:30:00.685Z,4.1
2023-12-29T10:31:01.059Z,4.1
2023-12-29T10:32:00.833Z,4.1
2023-12-29T10:33:01.451Z,4.1
2023-12-29T10:34:31.254Z,3.8
2023-12-29T10:35:16.053Z,3.8
2023-12-29T10:36:03.935Z,3.8
2023-12-29T10:37:02.073Z,3.8
2023-12-29T10:38:09.907Z,3.8
2023-12-29T10:39:07.946Z,3.8
2023-12-29T10:40:00.758Z,4.1
2023-12-29T10:41:18.036Z,4.1
2023-12-29T10:42:03.819Z,4.1
2023-12-29T10:43:00.977Z,4.1
2023-12-29T10:44:06.754Z,4.1
2023-12-29T10:45:09.452Z,3.9
2023-12-29T10:46:08.657Z,3.9
2023-12-29T10:47:09.134Z,3.9
2023-12-29T10:48:00.895Z,3.9
2023-12-29T10:49:10.459Z,3.9
2023-12-29T10:50:02.678Z,3.9
2023-12-29T10:51:02.922Z,3.9
2023-12-29T10:52:11.242Z,3.9
2023-12-29T10:53:16.347Z,3.9
2023-12-29T10:54:00.680Z,3.9
2023-12-29T10:55:09.944Z,4.1
2023-12-29T10:56:00.782Z,4.1
2023-12-29T10:57:01.980Z,4.1
2023-12-29T10:58:00.788Z,4.1
2023-12-29T10:59:02.085Z,4.1
2023-12-29T11:00:00.760Z,3.7
2023-12-29T11:01:00.773Z,3.7
2023-12-29T11:02:03.391Z,3.7
2023-12-29T11:03:01.381Z,3.7
2023-12-29T11:04:02.578Z,3.7
2023-12-29T11:05:08.878Z,4.4
2023-12-29T11:06:01.652Z,4.4
2023-12-29T11:07:01.067Z,4.4
2023-12-29T11:08:00.738Z,4.4
2023-12-29T11:09:00.667Z,4.4
2023-12-29T11:10:02.927Z,4.2
2023-12-29T11:11:01.039Z,4.2
2023-12-29T11:12:02.718Z,4.2
2023-12-29T11:13:01.012Z,4.2
2023-12-29T11:14:00.756Z,4.2
2023-12-29T11:15:03.796Z,4.1
2023-12-29T11:16:00.876Z,4.1
2023-12-29T11:17:00.918Z,4.1
2023-12-29T11:18:02.366Z,4.1
2023-12-29T11:19:02.230Z,4.1
2023-12-29T11:20:02.992Z,4.4
2023-12-29T11:21:01.263Z,4.4
2023-12-29T11:22:02.800Z,4.4
2023-12-29T11:23:00.841Z,4.4
2023-12-29T11:24:00.684Z,4.4
2023-12-29T11:25:00.835Z,4.0
2023-12-29T11:26:00.902Z,4.0
2023-12-29T11:27:01.650Z,4.0
2023-12-29T11:28:01.356Z,4.0
2023-12-29T11:29:01.295Z,4.0
2023-12-29T11:30:02.492Z,4.3
2023-12-29T11:31:00.774Z,4.3
2023-12-29T11:32:05.338Z,4.3
2023-12-29T11:33:06.569Z,4.3
2023-12-29T11:34:08.305Z,4.3
2023-12-29T11:35:11.237Z,4.1
2023-12-29T11:36:16.816Z,4.1
2023-12-29T11:37:16.693Z,4.1
2023-12-29T11:38:44.843Z,4.1
2023-12-29T11:39:50.464Z,4.0
2023-12-29T11:40:37.827Z,4.0
2023-12-29T11:41:15.680Z,4.0
2023-12-29T11:42:19.438Z,4.0
2023-12-29T11:43:06.790Z,4.0
2023-12-29T11:44:01.324Z,4.0
2023-12-29T11:45:32.894Z,4.2
2023-12-29T11:46:00.921Z,4.2
2023-12-29T11:47:03.359Z,4.2
2023-12-29T11:48:00.697Z,4.2
2023-12-29T11:49:00.977Z,4.2
2023-12-29T11:50:02.456Z,4.2
2023-12-29T11:51:00.726Z,4.2
2023-12-29T11:52:00.729Z,4.2
2023-12-29T11:53:01.018Z,4.2
2023-12-29T11:54:02.749Z,4.2
2023-12-29T11:55:17.810Z,4.1
2023-12-29T11:56:00.661Z,4.1
2023-12-29T11:57:00.689Z,4.1
2023-12-29T11:58:01.148Z,4.1
2023-12-29T11:59:31.108Z,4.1
2023-12-29T12:00:00.793Z,4.1
2023-12-29T12:01:01.422Z,4.1
2023-12-29T12:02:00.765Z,4.1
2023-12-29T12:03:01.082Z,4.1
2023-12-29T12:04:00.773Z,4.1
2023-12-29T12:05:00.743Z,4.2
2023-12-29T12:06:01.150Z,4.2
2023-12-29T12:07:00.713Z,4.2
2023-12-29T12:08:00.685Z,4.2
2023-12-29T12:09:31.116Z,4.1
2023-12-29T12:10:32.611Z,4.1
2023-12-29T12:11:31.135Z,4.1
2023-12-29T12:12:02.417Z,4.1
2023-12-29T12:13:01.107Z,4.1
2023-12-29T12:14:01.531Z,4.1
2023-12-29T12:15:00.743Z,4.5
2023-12-29T12:16:00.759Z,4.5
2023-12-29T12:17:00.795Z,4.5
2023-12-29T12:18:04.244Z,4.5
2023-12-29T12:19:00.961Z,4.5
2023-12-29T12:20:03.482Z,4.4
2023-12-29T12:21:03.311Z,4.4
2023-12-29T12:22:01.844Z,4.4
2023-12-29T12:23:33.503Z,4.4
2023-12-29T12:24:02.603Z,4.4
2023-12-29T12:25:01.432Z,4.4
2023-12-29T12:26:01.314Z,4.4
2023-12-29T12:27:00.854Z,4.4
2023-12-29T12:28:04.902Z,4.4
2023-12-29T12:29:00.926Z,4.4
2023-12-29T12:30:00.755Z,4.2
2023-12-29T12:31:08.077Z,4.2
2023-12-29T12:32:00.650Z,4.2
2023-12-29T12:33:04.462Z,4.2
2023-12-29T12:34:00.751Z,4.2
2023-12-29T12:35:00.716Z,4.5
2023-12-29T12:36:00.700Z,4.5
2023-12-29T12:37:00.783Z,4.5
2023-12-29T12:38:17.499Z,4.5
2023-12-29T12:39:00.668Z,4.5
2023-12-29T12:40:00.740Z,4.4
2023-12-29T12:41:17.962Z,4.4
2023-12-29T12:42:00.759Z,4.4
2023-12-29T12:43:01.624Z,4.4
2023-12-29T12:44:10.886Z,4.4
2023-12-29T12:45:06.710Z,4.4
2023-12-29T12:46:02.316Z,4.4
2023-12-29T12:47:08.530Z,4.4
2023-12-29T12:48:09.422Z,4.4
2023-12-29T12:49:01.083Z,4.4
2023-12-29T12:50:01.296Z,4.2
2023-12-29T12:51:00.926Z,4.2
2023-12-29T12:52:00.915Z,4.2
2023-12-29T12:53:01.563Z,4.2
2023-12-29T12:54:00.988Z,4.2
2023-12-29T12:55:00.853Z,4.6
2023-12-29T12:56:00.812Z,4.6
2023-12-29T12:57:01.256Z,4.6
2023-12-29T12:58:01.130Z,4.6
2023-12-29T12:59:03.108Z,4.6
2023-12-29T13:00:02.325Z,4.3
2023-12-29T13:01:01.394Z,4.3
2023-12-29T13:02:02.408Z,4.3
2023-12-29T13:03:01.348Z,4.3
2023-12-29T13:04:00.873Z,4.3
2023-12-29T13:05:01.315Z,4.2
2023-12-29T13:06:00.907Z,4.2
2023-12-29T13:07:00.792Z,4.2
2023-12-29T13:08:00.886Z,4.2
2023-12-29T13:09:01.326Z,4.2
2023-12-29T13:10:02.318Z,4.3
2023-12-29T13:11:01.168Z,4.3
2023-12-29T13:12:16.347Z,4.3
2023-12-29T13:13:00.948Z,4.3
2023-12-29T13:14:00.658Z,4.3
2023-12-29T13:15:08.530Z,4.4
2023-12-29T13:16:00.690Z,4.4
2023-12-29T13:17:05.087Z,4.4
2023-12-29T13:18:00.813Z,4.4
2023-12-29T13:19:31.121Z,4.6
2023-12-29T13:20:00.842Z,4.6
2023-12-29T13:21:02.234Z,4.6
2023-12-29T13:22:00.870Z,4.6
2023-12-29T13:23:01.100Z,4.6
2023-12-29T13:24:04.305Z,4.6
2023-12-29T13:25:05.439Z,4.9
2023-12-29T13:26:05.529Z,4.9
2023-12-29T13:27:05.493Z,4.9
2023-12-29T13:28:00.912Z,4.9
2023-12-29T13:29:00.831Z,4.9
2023-12-29T13:30:00.751Z,4.9
2023-12-29T13:31:01.484Z,4.9
2023-12-29T13:32:14.846Z,4.9
2023-12-29T13:33:11.277Z,4.9
2023-12-29T13:34:06.164Z,4.9
2023-12-29T13:35:36.898Z,4.5
2023-12-29T13:36:10.144Z,4.5
2023-12-29T13:37:07.162Z,4.5
2023-12-29T13:38:25.637Z,4.5
2023-12-29T13:39:12.584Z,4.5
2023-12-29T13:40:10.032Z,4.5
2023-12-29T13:41:06.434Z,4.5
2023-12-29T13:42:03.494Z,4.5
2023-12-29T13:43:02.803Z,4.5
2023-12-29T13:44:01.539Z,4.5
2023-12-29T13:45:01.843Z,4.4
2023-12-29T13:46:02.590Z,4.4